sensor_id;sensor_type;location;lat;lon;timestamp;P1;durP1;ratioP1;P2;durP2;ratioP2
16407;SDS011;8313;49.894;8.084;2022-09-16T00:00:21;1.83;;;1.53;;
16407;SDS011;8313;49.894;8.084;2022-09-16T00:02:47;2.57;;;1.70;;
16407;SDS011;8313;49.894;8.084;2022-09-16T00:05:15;2.10;;;1.80;;
16407;SDS011;8313;49.894;8.084;2022-09-16T00:07:41;2.90;;;1.73;;
16407;SDS011;8313;49.894;8.084;2022-09-16T00:10:07;3.73;;;2.00;;
16407;SDS011;8313;49.894;8.084;2022-09-16T00:12:33;1.90;;;1.70;;
16407;SDS011;8313;49.894;8.084;2022-09-16T00:14:59;1.67;;;1.30;;
16407;SDS011;8313;49.894;8.084;2022-09-16T00:17:25;2.53;;;1.50;;
16407;SDS011;8313;49.894;8.084;2022-09-16T00:19:50;3.20;;;1.80;;
16407;SDS011;8313;49.894;8.084;2022-09-16T00:22:16;3.03;;;1.90;;
16407;SDS011;8313;49.894;8.084;2022-09-16T00:24:42;3.73;;;2.20;;
16407;SDS011;8313;49.894;8.084;2022-09-16T00:27:09;2.67;;;1.50;;
16407;SDS011;8313;49.894;8.084;2022-09-16T00:29:35;9.97;;;2.00;;
16407;SDS011;8313;49.894;8.084;2022-09-16T00:32:00;3.20;;;1.73;;
16407;SDS011;8313;49.894;8.084;2022-09-16T00:34:26;2.00;;;1.73;;
16407;SDS011;8313;49.894;8.084;2022-09-16T00:36:52;1.70;;;1.47;;
16407;SDS011;8313;49.894;8.084;2022-09-16T00:39:17;2.10;;;1.63;;
16407;SDS011;8313;49.894;8.084;2022-09-16T00:41:43;4.60;;;2.90;;
16407;SDS011;8313;49.894;8.084;2022-09-16T00:47:13;5.90;;;1.83;;
16407;SDS011;8313;49.894;8.084;2022-09-16T00:49:43;2.40;;;1.80;;
16407;SDS011;8313;49.894;8.084;2022-09-16T00:52:10;4.37;;;1.83;;
16407;SDS011;8313;49.894;8.084;2022-09-16T00:54:37;1.93;;;1.83;;
16407;SDS011;8313;49.894;8.084;2022-09-16T00:57:05;3.33;;;1.87;;
16407;SDS011;8313;49.894;8.084;2022-09-16T00:59:36;1.70;;;1.60;;
16407;SDS011;8313;49.894;8.084;2022-09-16T01:02:11;2.50;;;1.70;;
16407;SDS011;8313;49.894;8.084;2022-09-16T01:04:43;1.60;;;1.50;;
16407;SDS011;8313;49.894;8.084;2022-09-16T01:07:25;2.80;;;2.20;;
16407;SDS011;8313;49.894;8.084;2022-09-16T01:09:55;2.70;;;1.43;;
16407;SDS011;8313;49.894;8.084;2022-09-16T01:12:21;5.53;;;1.87;;
16407;SDS011;8313;49.894;8.084;2022-09-16T01:14:48;1.57;;;1.47;;
16407;SDS011;8313;49.894;8.084;2022-09-16T01:36:54;6.93;;;2.20;;
16407;SDS011;8313;49.894;8.084;2022-09-16T01:39:38;2.43;;;1.70;;
16407;SDS011;8313;49.894;8.084;2022-09-16T01:47:21;4.40;;;1.87;;
16407;SDS011;8313;49.894;8.084;2022-09-16T01:50:19;1.40;;;1.30;;
16407;SDS011;8313;49.894;8.084;2022-09-16T01:55:40;5.77;;;1.73;;
16407;SDS011;8313;49.894;8.084;2022-09-16T01:58:32;1.87;;;1.40;;
16407;SDS011;8313;49.894;8.084;2022-09-16T02:01:02;2.50;;;1.63;;
16407;SDS011;8313;49.894;8.084;2022-09-16T02:03:32;4.90;;;1.70;;
16407;SDS011;8313;49.894;8.084;2022-09-16T02:06:02;3.00;;;1.57;;
16407;SDS011;8313;49.894;8.084;2022-09-16T02:11:07;3.50;;;1.63;;
16407;SDS011;8313;49.894;8.084;2022-09-16T02:13:41;4.03;;;1.50;;
16407;SDS011;8313;49.894;8.084;2022-09-16T02:16:15;2.17;;;1.50;;
16407;SDS011;8313;49.894;8.084;2022-09-16T02:18:48;1.40;;;1.30;;
16407;SDS011;8313;49.894;8.084;2022-09-16T02:21:18;1.60;;;1.40;;
16407;SDS011;8313;49.894;8.084;2022-09-16T02:23:47;2.90;;;1.50;;
16407;SDS011;8313;49.894;8.084;2022-09-16T02:26:16;3.23;;;1.50;;
16407;SDS011;8313;49.894;8.084;2022-09-16T02:28:46;7.90;;;1.67;;
16407;SDS011;8313;49.894;8.084;2022-09-16T02:31:15;3.90;;;1.50;;
16407;SDS011;8313;49.894;8.084;2022-09-16T02:33:46;2.23;;;1.73;;
16407;SDS011;8313;49.894;8.084;2022-09-16T02:36:22;5.80;;;2.00;;
16407;SDS011;8313;49.894;8.084;2022-09-16T02:38:52;2.30;;;1.47;;
16407;SDS011;8313;49.894;8.084;2022-09-16T02:41:33;1.93;;;1.40;;
16407;SDS011;8313;49.894;8.084;2022-09-16T02:44:01;1.90;;;1.30;;
16407;SDS011;8313;49.894;8.084;2022-09-16T02:46:33;2.50;;;1.43;;
16407;SDS011;8313;49.894;8.084;2022-09-16T02:56:49;1.73;;;1.33;;
16407;SDS011;8313;49.894;8.084;2022-09-16T02:59:15;2.83;;;1.90;;
16407;SDS011;8313;49.894;8.084;2022-09-16T03:01:43;2.97;;;1.30;;
16407;SDS011;8313;49.894;8.084;2022-09-16T03:04:10;3.03;;;1.90;;
16407;SDS011;8313;49.894;8.084;2022-09-16T03:06:38;6.13;;;1.80;;
16407;SDS011;8313;49.894;8.084;2022-09-16T03:09:05;2.03;;;1.83;;
16407;SDS011;8313;49.894;8.084;2022-09-16T03:27:49;2.30;;;2.00;;
16407;SDS011;8313;49.894;8.084;2022-09-16T03:30:20;3.03;;;1.60;;
16407;SDS011;8313;49.894;8.084;2022-09-16T03:32:48;5.93;;;1.70;;
16407;SDS011;8313;49.894;8.084;2022-09-16T03:35:25;4.37;;;2.17;;
16407;SDS011;8313;49.894;8.084;2022-09-16T03:38:01;1.70;;;1.60;;
16407;SDS011;8313;49.894;8.084;2022-09-16T03:40:28;3.13;;;2.03;;
16407;SDS011;8313;49.894;8.084;2022-09-16T03:42:57;1.53;;;1.43;;
16407;SDS011;8313;49.894;8.084;2022-09-16T03:45:23;2.30;;;2.07;;
16407;SDS011;8313;49.894;8.084;2022-09-16T03:47:49;3.07;;;2.00;;
16407;SDS011;8313;49.894;8.084;2022-09-16T03:50:16;1.47;;;1.37;;
16407;SDS011;8313;49.894;8.084;2022-09-16T03:52:43;2.60;;;2.43;;
16407;SDS011;8313;49.894;8.084;2022-09-16T03:55:08;4.20;;;2.07;;
16407;SDS011;8313;49.894;8.084;2022-09-16T03:57:35;3.67;;;1.63;;
16407;SDS011;8313;49.894;8.084;2022-09-16T04:00:01;3.33;;;1.83;;
16407;SDS011;8313;49.894;8.084;2022-09-16T04:02:36;5.20;;;1.80;;
16407;SDS011;8313;49.894;8.084;2022-09-16T04:05:02;3.20;;;2.00;;
16407;SDS011;8313;49.894;8.084;2022-09-16T04:07:28;2.57;;;2.00;;
16407;SDS011;8313;49.894;8.084;2022-09-16T04:09:57;3.00;;;1.93;;
16407;SDS011;8313;49.894;8.084;2022-09-16T04:12:23;6.20;;;2.23;;
16407;SDS011;8313;49.894;8.084;2022-09-16T04:14:48;3.60;;;2.50;;
16407;SDS011;8313;49.894;8.084;2022-09-16T04:17:14;3.80;;;2.30;;
16407;SDS011;8313;49.894;8.084;2022-09-16T04:19:40;2.27;;;2.07;;
16407;SDS011;8313;49.894;8.084;2022-09-16T04:22:06;2.17;;;1.93;;
16407;SDS011;8313;49.894;8.084;2022-09-16T04:24:31;3.50;;;2.37;;
16407;SDS011;8313;49.894;8.084;2022-09-16T04:26:57;2.20;;;1.97;;
16407;SDS011;8313;49.894;8.084;2022-09-16T04:29:23;3.47;;;2.03;;
16407;SDS011;8313;49.894;8.084;2022-09-16T04:31:48;6.43;;;3.10;;
16407;SDS011;8313;49.894;8.084;2022-09-16T04:34:14;2.53;;;2.27;;
16407;SDS011;8313;49.894;8.084;2022-09-16T04:36:40;5.27;;;2.67;;
16407;SDS011;8313;49.894;8.084;2022-09-16T04:39:05;6.20;;;2.80;;
16407;SDS011;8313;49.894;8.084;2022-09-16T04:41:31;2.63;;;2.43;;
16407;SDS011;8313;49.894;8.084;2022-09-16T04:43:57;2.90;;;2.53;;
16407;SDS011;8313;49.894;8.084;2022-09-16T04:46:24;3.40;;;2.43;;
16407;SDS011;8313;49.894;8.084;2022-09-16T04:48:52;2.50;;;2.30;;
16407;SDS011;8313;49.894;8.084;2022-09-16T04:51:19;5.47;;;2.50;;
16407;SDS011;8313;49.894;8.084;2022-09-16T04:53:46;10.50;;;2.13;;
16407;SDS011;8313;49.894;8.084;2022-09-16T04:58:44;3.53;;;2.10;;
16407;SDS011;8313;49.894;8.084;2022-09-16T05:01:13;4.27;;;2.77;;
16407;SDS011;8313;49.894;8.084;2022-09-16T05:03:41;2.20;;;2.00;;
16407;SDS011;8313;49.894;8.084;2022-09-16T05:06:09;3.10;;;2.67;;
16407;SDS011;8313;49.894;8.084;2022-09-16T05:08:37;2.33;;;2.13;;
16407;SDS011;8313;49.894;8.084;2022-09-16T05:11:07;3.57;;;2.00;;
16407;SDS011;8313;49.894;8.084;2022-09-16T05:13:35;5.80;;;2.30;;
16407;SDS011;8313;49.894;8.084;2022-09-16T05:16:04;2.97;;;2.50;;
16407;SDS011;8313;49.894;8.084;2022-09-16T05:18:32;5.83;;;2.00;;
16407;SDS011;8313;49.894;8.084;2022-09-16T05:20:59;2.37;;;2.10;;
16407;SDS011;8313;49.894;8.084;2022-09-16T05:23:26;3.10;;;2.47;;
16407;SDS011;8313;49.894;8.084;2022-09-16T05:25:52;2.97;;;2.70;;
16407;SDS011;8313;49.894;8.084;2022-09-16T05:28:19;3.00;;;2.30;;
16407;SDS011;8313;49.894;8.084;2022-09-16T05:30:45;3.60;;;2.47;;
16407;SDS011;8313;49.894;8.084;2022-09-16T05:33:11;3.63;;;2.20;;
16407;SDS011;8313;49.894;8.084;2022-09-16T05:35:36;5.03;;;2.70;;
16407;SDS011;8313;49.894;8.084;2022-09-16T05:38:02;4.70;;;2.20;;
16407;SDS011;8313;49.894;8.084;2022-09-16T05:40:28;2.40;;;2.10;;
16407;SDS011;8313;49.894;8.084;2022-09-16T05:42:53;4.60;;;2.13;;
16407;SDS011;8313;49.894;8.084;2022-09-16T05:45:19;4.13;;;2.33;;
16407;SDS011;8313;49.894;8.084;2022-09-16T05:47:48;6.00;;;2.00;;
16407;SDS011;8313;49.894;8.084;2022-09-16T05:50:14;2.27;;;2.07;;
16407;SDS011;8313;49.894;8.084;2022-09-16T05:52:40;2.37;;;1.93;;
16407;SDS011;8313;49.894;8.084;2022-09-16T05:55:06;8.17;;;2.67;;
16407;SDS011;8313;49.894;8.084;2022-09-16T05:57:32;3.77;;;2.40;;
16407;SDS011;8313;49.894;8.084;2022-09-16T05:59:58;5.87;;;2.57;;
16407;SDS011;8313;49.894;8.084;2022-09-16T06:02:23;2.73;;;2.37;;
16407;SDS011;8313;49.894;8.084;2022-09-16T06:04:49;2.70;;;2.40;;
16407;SDS011;8313;49.894;8.084;2022-09-16T06:07:15;2.60;;;2.40;;
16407;SDS011;8313;49.894;8.084;2022-09-16T06:09:41;2.07;;;1.97;;
16407;SDS011;8313;49.894;8.084;2022-09-16T06:12:08;6.97;;;2.30;;
16407;SDS011;8313;49.894;8.084;2022-09-16T06:14:34;4.20;;;2.33;;
16407;SDS011;8313;49.894;8.084;2022-09-16T06:17:01;4.37;;;2.27;;
16407;SDS011;8313;49.894;8.084;2022-09-16T06:19:27;2.60;;;2.07;;
16407;SDS011;8313;49.894;8.084;2022-09-16T06:21:53;2.57;;;2.37;;
16407;SDS011;8313;49.894;8.084;2022-09-16T06:24:18;3.20;;;1.90;;
16407;SDS011;8313;49.894;8.084;2022-09-16T06:26:45;6.13;;;2.27;;
16407;SDS011;8313;49.894;8.084;2022-09-16T06:29:14;2.40;;;2.20;;
16407;SDS011;8313;49.894;8.084;2022-09-16T06:31:40;2.43;;;2.23;;
16407;SDS011;8313;49.894;8.084;2022-09-16T06:34:07;2.90;;;2.20;;
16407;SDS011;8313;49.894;8.084;2022-09-16T06:36:37;2.83;;;2.27;;
16407;SDS011;8313;49.894;8.084;2022-09-16T06:39:03;5.63;;;2.43;;
16407;SDS011;8313;49.894;8.084;2022-09-16T06:41:30;3.60;;;2.40;;
16407;SDS011;8313;49.894;8.084;2022-09-16T06:43:57;3.57;;;2.20;;
16407;SDS011;8313;49.894;8.084;2022-09-16T06:46:24;6.70;;;2.33;;
16407;SDS011;8313;49.894;8.084;2022-09-16T06:48:52;2.53;;;2.20;;
16407;SDS011;8313;49.894;8.084;2022-09-16T06:51:24;2.47;;;2.27;;
16407;SDS011;8313;49.894;8.084;2022-09-16T06:53:51;2.43;;;2.03;;
16407;SDS011;8313;49.894;8.084;2022-09-16T06:56:19;4.00;;;2.33;;
16407;SDS011;8313;49.894;8.084;2022-09-16T06:58:46;3.67;;;2.03;;
16407;SDS011;8313;49.894;8.084;2022-09-16T07:01:15;3.77;;;2.10;;
16407;SDS011;8313;49.894;8.084;2022-09-16T07:03:46;2.43;;;2.00;;
16407;SDS011;8313;49.894;8.084;2022-09-16T07:06:14;2.33;;;2.00;;
16407;SDS011;8313;49.894;8.084;2022-09-16T07:08:40;5.13;;;2.37;;
16407;SDS011;8313;49.894;8.084;2022-09-16T07:11:09;3.73;;;1.80;;
16407;SDS011;8313;49.894;8.084;2022-09-16T07:13:36;2.70;;;1.90;;
16407;SDS011;8313;49.894;8.084;2022-09-16T07:16:03;3.10;;;1.93;;
16407;SDS011;8313;49.894;8.084;2022-09-16T07:18:31;6.70;;;2.27;;
16407;SDS011;8313;49.894;8.084;2022-09-16T07:21:04;3.40;;;2.30;;
16407;SDS011;8313;49.894;8.084;2022-09-16T07:23:41;2.00;;;1.90;;
16407;SDS011;8313;49.894;8.084;2022-09-16T07:26:14;2.33;;;1.97;;
16407;SDS011;8313;49.894;8.084;2022-09-16T07:28:41;2.53;;;1.83;;
16407;SDS011;8313;49.894;8.084;2022-09-16T07:31:11;3.50;;;1.90;;
16407;SDS011;8313;49.894;8.084;2022-09-16T07:33:40;1.70;;;1.60;;
16407;SDS011;8313;49.894;8.084;2022-09-16T07:36:08;1.50;;;1.40;;
16407;SDS011;8313;49.894;8.084;2022-09-16T07:38:35;3.13;;;2.40;;
16407;SDS011;8313;49.894;8.084;2022-09-16T07:43:30;3.10;;;2.00;;
16407;SDS011;8313;49.894;8.084;2022-09-16T07:45:56;2.97;;;1.70;;
16407;SDS011;8313;49.894;8.084;2022-09-16T07:48:23;3.00;;;2.70;;
16407;SDS011;8313;49.894;8.084;2022-09-16T07:50:53;3.80;;;1.77;;
16407;SDS011;8313;49.894;8.084;2022-09-16T07:53:30;2.73;;;2.30;;
16407;SDS011;8313;49.894;8.084;2022-09-16T07:56:00;4.53;;;1.73;;
16407;SDS011;8313;49.894;8.084;2022-09-16T07:58:27;2.77;;;2.00;;
16407;SDS011;8313;49.894;8.084;2022-09-16T08:00:52;1.77;;;1.67;;
16407;SDS011;8313;49.894;8.084;2022-09-16T08:03:18;1.77;;;1.63;;
16407;SDS011;8313;49.894;8.084;2022-09-16T08:05:44;11.10;;;2.90;;
16407;SDS011;8313;49.894;8.084;2022-09-16T08:08:09;3.37;;;1.93;;
16407;SDS011;8313;49.894;8.084;2022-09-16T08:10:35;3.63;;;1.50;;
16407;SDS011;8313;49.894;8.084;2022-09-16T08:13:02;3.90;;;1.87;;
16407;SDS011;8313;49.894;8.084;2022-09-16T08:15:29;1.50;;;1.40;;
16407;SDS011;8313;49.894;8.084;2022-09-16T08:17:54;3.23;;;1.57;;
16407;SDS011;8313;49.894;8.084;2022-09-16T08:20:20;2.47;;;1.20;;
16407;SDS011;8313;49.894;8.084;2022-09-16T08:22:46;4.50;;;1.80;;
16407;SDS011;8313;49.894;8.084;2022-09-16T08:25:11;1.70;;;1.60;;
16407;SDS011;8313;49.894;8.084;2022-09-16T08:27:37;4.73;;;2.17;;
16407;SDS011;8313;49.894;8.084;2022-09-16T08:30:03;4.83;;;1.23;;
16407;SDS011;8313;49.894;8.084;2022-09-16T08:32:29;3.43;;;1.13;;
16407;SDS011;8313;49.894;8.084;2022-09-16T08:34:55;1.40;;;1.30;;
16407;SDS011;8313;49.894;8.084;2022-09-16T08:37:21;4.83;;;2.00;;
16407;SDS011;8313;49.894;8.084;2022-09-16T08:39:46;1.23;;;1.00;;
16407;SDS011;8313;49.894;8.084;2022-09-16T08:50:40;5.07;;;1.20;;
16407;SDS011;8313;49.894;8.084;2022-09-16T08:53:17;6.20;;;1.10;;
16407;SDS011;8313;49.894;8.084;2022-09-16T08:55:49;4.10;;;1.00;;
16407;SDS011;8313;49.894;8.084;2022-09-16T08:58:17;1.37;;;0.93;;
16407;SDS011;8313;49.894;8.084;2022-09-16T09:00:51;2.03;;;1.00;;
16407;SDS011;8313;49.894;8.084;2022-09-16T09:06:32;1.03;;;0.93;;
16407;SDS011;8313;49.894;8.084;2022-09-16T09:09:21;2.80;;;1.03;;
16407;SDS011;8313;49.894;8.084;2022-09-16T09:12:30;1.87;;;1.77;;
16407;SDS011;8313;49.894;8.084;2022-09-16T09:31:45;1.40;;;0.90;;
16407;SDS011;8313;49.894;8.084;2022-09-16T09:37:21;0.97;;;0.87;;
16407;SDS011;8313;49.894;8.084;2022-09-16T09:42:41;1.13;;;1.03;;
16407;SDS011;8313;49.894;8.084;2022-09-16T09:45:33;3.30;;;1.47;;
16407;SDS011;8313;49.894;8.084;2022-09-16T09:48:04;1.47;;;1.07;;
16407;SDS011;8313;49.894;8.084;2022-09-16T09:50:45;0.90;;;0.90;;
16407;SDS011;8313;49.894;8.084;2022-09-16T09:53:17;4.40;;;1.63;;
16407;SDS011;8313;49.894;8.084;2022-09-16T09:55:44;1.87;;;1.73;;
16407;SDS011;8313;49.894;8.084;2022-09-16T09:58:24;0.70;;;0.70;;
16407;SDS011;8313;49.894;8.084;2022-09-16T10:00:56;1.63;;;1.13;;
16407;SDS011;8313;49.894;8.084;2022-09-16T10:03:22;1.10;;;1.00;;
16407;SDS011;8313;49.894;8.084;2022-09-16T10:05:49;1.57;;;1.10;;
16407;SDS011;8313;49.894;8.084;2022-09-16T10:08:22;1.67;;;1.30;;
16407;SDS011;8313;49.894;8.084;2022-09-16T10:10:56;1.10;;;1.00;;
16407;SDS011;8313;49.894;8.084;2022-09-16T10:13:24;3.47;;;1.10;;
16407;SDS011;8313;49.894;8.084;2022-09-16T10:16:04;3.93;;;1.00;;
16407;SDS011;8313;49.894;8.084;2022-09-16T10:18:38;2.77;;;1.80;;
16407;SDS011;8313;49.894;8.084;2022-09-16T10:23:32;1.60;;;1.07;;
16407;SDS011;8313;49.894;8.084;2022-09-16T10:26:03;3.03;;;1.00;;
16407;SDS011;8313;49.894;8.084;2022-09-16T10:28:52;1.10;;;1.00;;
16407;SDS011;8313;49.894;8.084;2022-09-16T10:31:22;1.23;;;0.97;;
16407;SDS011;8313;49.894;8.084;2022-09-16T10:33:50;0.90;;;0.80;;
16407;SDS011;8313;49.894;8.084;2022-09-16T10:36:18;1.70;;;1.10;;
16407;SDS011;8313;49.894;8.084;2022-09-16T10:38:56;2.47;;;1.27;;
16407;SDS011;8313;49.894;8.084;2022-09-16T10:41:25;1.13;;;1.00;;
16407;SDS011;8313;49.894;8.084;2022-09-16T10:43:59;6.00;;;1.17;;
16407;SDS011;8313;49.894;8.084;2022-09-16T10:46:25;1.60;;;1.00;;
16407;SDS011;8313;49.894;8.084;2022-09-16T10:48:53;1.20;;;1.13;;
16407;SDS011;8313;49.894;8.084;2022-09-16T10:51:28;1.00;;;1.00;;
16407;SDS011;8313;49.894;8.084;2022-09-16T10:53:59;1.30;;;0.90;;
16407;SDS011;8313;49.894;8.084;2022-09-16T10:56:27;1.27;;;1.00;;
16407;SDS011;8313;49.894;8.084;2022-09-16T11:01:31;0.80;;;0.80;;
16407;SDS011;8313;49.894;8.084;2022-09-16T11:12:14;4.33;;;1.40;;
16407;SDS011;8313;49.894;8.084;2022-09-16T11:15:00;2.50;;;1.33;;
16407;SDS011;8313;49.894;8.084;2022-09-16T11:28:16;1.87;;;1.27;;
16407;SDS011;8313;49.894;8.084;2022-09-16T11:30:54;3.60;;;1.50;;
16407;SDS011;8313;49.894;8.084;2022-09-16T11:33:28;1.00;;;1.00;;
16407;SDS011;8313;49.894;8.084;2022-09-16T11:41:53;0.80;;;0.80;;
16407;SDS011;8313;49.894;8.084;2022-09-16T11:45:04;1.03;;;0.90;;
16407;SDS011;8313;49.894;8.084;2022-09-16T11:47:48;1.00;;;0.90;;
16407;SDS011;8313;49.894;8.084;2022-09-16T11:50:48;0.77;;;0.77;;
16407;SDS011;8313;49.894;8.084;2022-09-16T11:56:09;2.57;;;1.00;;
16407;SDS011;8313;49.894;8.084;2022-09-16T12:01:35;1.37;;;1.27;;
16407;SDS011;8313;49.894;8.084;2022-09-16T12:07:14;1.90;;;1.53;;
16407;SDS011;8313;49.894;8.084;2022-09-16T12:12:19;3.93;;;1.63;;
16407;SDS011;8313;49.894;8.084;2022-09-16T12:14:52;2.50;;;1.50;;
16407;SDS011;8313;49.894;8.084;2022-09-16T12:17:27;1.93;;;1.47;;
16407;SDS011;8313;49.894;8.084;2022-09-16T12:19:57;2.13;;;1.60;;
16407;SDS011;8313;49.894;8.084;2022-09-16T12:22:30;6.10;;;1.80;;
16407;SDS011;8313;49.894;8.084;2022-09-16T12:25:28;1.33;;;1.17;;
16407;SDS011;8313;49.894;8.084;2022-09-16T12:28:05;1.10;;;1.00;;
16407;SDS011;8313;49.894;8.084;2022-09-16T12:30:48;0.80;;;0.80;;
16407;SDS011;8313;49.894;8.084;2022-09-16T12:33:26;0.90;;;0.90;;
16407;SDS011;8313;49.894;8.084;2022-09-16T12:36:19;2.70;;;1.30;;
16407;SDS011;8313;49.894;8.084;2022-09-16T12:38:46;1.57;;;1.47;;
16407;SDS011;8313;49.894;8.084;2022-09-16T13:03:24;7.23;;;4.70;;
16407;SDS011;8313;49.894;8.084;2022-09-16T13:05:53;11.83;;;5.27;;
16407;SDS011;8313;49.894;8.084;2022-09-16T13:11:00;40.60;;;25.40;;
16407;SDS011;8313;49.894;8.084;2022-09-16T13:13:34;13.10;;;10.40;;
16407;SDS011;8313;49.894;8.084;2022-09-16T13:16:28;14.30;;;12.50;;
16407;SDS011;8313;49.894;8.084;2022-09-16T13:19:14;19.70;;;15.60;;
16407;SDS011;8313;49.894;8.084;2022-09-16T13:21:57;6.67;;;6.07;;
16407;SDS011;8313;49.894;8.084;2022-09-16T13:24:36;5.23;;;2.70;;
16407;SDS011;8313;49.894;8.084;2022-09-16T13:29:50;10.53;;;8.30;;
16407;SDS011;8313;49.894;8.084;2022-09-16T13:35:01;15.03;;;12.67;;
16407;SDS011;8313;49.894;8.084;2022-09-16T13:37:30;13.40;;;9.00;;
16407;SDS011;8313;49.894;8.084;2022-09-16T13:39:55;8.47;;;6.77;;
16407;SDS011;8313;49.894;8.084;2022-09-16T13:42:32;4.77;;;3.37;;
16407;SDS011;8313;49.894;8.084;2022-09-16T13:44:57;1.40;;;1.30;;
16407;SDS011;8313;49.894;8.084;2022-09-16T13:47:30;1.70;;;1.60;;
16407;SDS011;8313;49.894;8.084;2022-09-16T13:49:59;22.30;;;13.67;;
16407;SDS011;8313;49.894;8.084;2022-09-16T13:52:34;11.33;;;8.50;;
16407;SDS011;8313;49.894;8.084;2022-09-16T13:55:01;28.67;;;17.27;;
16407;SDS011;8313;49.894;8.084;2022-09-16T14:00:33;34.70;;;22.10;;
16407;SDS011;8313;49.894;8.084;2022-09-16T14:11:40;5.90;;;4.37;;
16407;SDS011;8313;49.894;8.084;2022-09-16T14:14:15;2.60;;;2.33;;
16407;SDS011;8313;49.894;8.084;2022-09-16T14:16:43;2.17;;;1.57;;
16407;SDS011;8313;49.894;8.084;2022-09-16T14:21:46;0.83;;;0.73;;
16407;SDS011;8313;49.894;8.084;2022-09-16T14:24:24;1.00;;;0.97;;
16407;SDS011;8313;49.894;8.084;2022-09-16T14:26:50;0.80;;;0.80;;
16407;SDS011;8313;49.894;8.084;2022-09-16T14:29:17;1.10;;;1.10;;
16407;SDS011;8313;49.894;8.084;2022-09-16T14:31:43;0.83;;;0.83;;
16407;SDS011;8313;49.894;8.084;2022-09-16T14:34:09;1.10;;;1.00;;
16407;SDS011;8313;49.894;8.084;2022-09-16T14:36:52;0.80;;;0.80;;
16407;SDS011;8313;49.894;8.084;2022-09-16T14:39:19;3.20;;;0.80;;
16407;SDS011;8313;49.894;8.084;2022-09-16T14:41:50;0.77;;;0.60;;
16407;SDS011;8313;49.894;8.084;2022-09-16T14:46:44;0.57;;;0.57;;
16407;SDS011;8313;49.894;8.084;2022-09-16T14:49:16;0.60;;;0.60;;
16407;SDS011;8313;49.894;8.084;2022-09-16T14:51:54;0.83;;;0.60;;
16407;SDS011;8313;49.894;8.084;2022-09-16T14:54:22;0.70;;;0.70;;
16407;SDS011;8313;49.894;8.084;2022-09-16T14:56:53;0.70;;;0.60;;
16407;SDS011;8313;49.894;8.084;2022-09-16T14:59:27;1.00;;;0.73;;
16407;SDS011;8313;49.894;8.084;2022-09-16T15:02:07;0.50;;;0.40;;
16407;SDS011;8313;49.894;8.084;2022-09-16T15:04:37;9.27;;;7.10;;
16407;SDS011;8313;49.894;8.084;2022-09-16T15:07:18;6.50;;;5.60;;
16407;SDS011;8313;49.894;8.084;2022-09-16T15:09:52;7.53;;;5.63;;
16407;SDS011;8313;49.894;8.084;2022-09-16T15:12:36;2.23;;;1.87;;
16407;SDS011;8313;49.894;8.084;2022-09-16T15:18:18;1.83;;;1.30;;
16407;SDS011;8313;49.894;8.084;2022-09-16T15:20:57;5.50;;;0.87;;
16407;SDS011;8313;49.894;8.084;2022-09-16T15:23:27;0.60;;;0.60;;
16407;SDS011;8313;49.894;8.084;2022-09-16T15:32:16;0.50;;;0.50;;
16407;SDS011;8313;49.894;8.084;2022-09-16T15:34:43;0.57;;;0.53;;
16407;SDS011;8313;49.894;8.084;2022-09-16T15:37:26;0.80;;;0.60;;
16407;SDS011;8313;49.894;8.084;2022-09-16T15:39:54;0.67;;;0.50;;
16407;SDS011;8313;49.894;8.084;2022-09-16T15:42:20;0.63;;;0.63;;
16407;SDS011;8313;49.894;8.084;2022-09-16T15:50:03;0.60;;;0.60;;
16407;SDS011;8313;49.894;8.084;2022-09-16T15:52:34;0.80;;;0.60;;
16407;SDS011;8313;49.894;8.084;2022-09-16T15:55:13;0.67;;;0.67;;
16407;SDS011;8313;49.894;8.084;2022-09-16T15:57:55;1.37;;;0.90;;
16407;SDS011;8313;49.894;8.084;2022-09-16T16:00:26;1.30;;;1.20;;
16407;SDS011;8313;49.894;8.084;2022-09-16T16:02:54;5.80;;;3.90;;
16407;SDS011;8313;49.894;8.084;2022-09-16T16:05:24;9.20;;;6.00;;
16407;SDS011;8313;49.894;8.084;2022-09-16T16:07:54;11.60;;;7.80;;
16407;SDS011;8313;49.894;8.084;2022-09-16T16:10:25;11.00;;;8.20;;
16407;SDS011;8313;49.894;8.084;2022-09-16T16:12:55;15.77;;;11.90;;
16407;SDS011;8313;49.894;8.084;2022-09-16T16:15:24;7.90;;;5.90;;
16407;SDS011;8313;49.894;8.084;2022-09-16T16:17:56;8.30;;;5.53;;
16407;SDS011;8313;49.894;8.084;2022-09-16T16:20:24;13.70;;;9.60;;
16407;SDS011;8313;49.894;8.084;2022-09-16T16:22:51;11.77;;;9.60;;
16407;SDS011;8313;49.894;8.084;2022-09-16T16:25:17;10.30;;;7.20;;
16407;SDS011;8313;49.894;8.084;2022-09-16T16:27:43;6.10;;;5.07;;
16407;SDS011;8313;49.894;8.084;2022-09-16T16:30:09;3.57;;;2.20;;
16407;SDS011;8313;49.894;8.084;2022-09-16T16:32:35;2.77;;;1.57;;
16407;SDS011;8313;49.894;8.084;2022-09-16T16:35:02;1.20;;;1.10;;
16407;SDS011;8313;49.894;8.084;2022-09-16T16:37:29;1.70;;;1.10;;
16407;SDS011;8313;49.894;8.084;2022-09-16T16:39:55;0.90;;;0.80;;
16407;SDS011;8313;49.894;8.084;2022-09-16T16:42:21;1.30;;;0.73;;
16407;SDS011;8313;49.894;8.084;2022-09-16T16:44:48;0.90;;;0.80;;
16407;SDS011;8313;49.894;8.084;2022-09-16T16:47:14;0.60;;;0.60;;
16407;SDS011;8313;49.894;8.084;2022-09-16T16:49:40;1.27;;;0.80;;
16407;SDS011;8313;49.894;8.084;2022-09-16T16:52:06;1.83;;;0.97;;
16407;SDS011;8313;49.894;8.084;2022-09-16T16:54:32;0.70;;;0.70;;
16407;SDS011;8313;49.894;8.084;2022-09-16T16:56:58;1.10;;;1.00;;
16407;SDS011;8313;49.894;8.084;2022-09-16T16:59:25;3.13;;;0.87;;
16407;SDS011;8313;49.894;8.084;2022-09-16T17:01:55;1.43;;;0.70;;
16407;SDS011;8313;49.894;8.084;2022-09-16T17:04:22;1.27;;;0.70;;
16407;SDS011;8313;49.894;8.084;2022-09-16T17:06:48;1.47;;;1.00;;
16407;SDS011;8313;49.894;8.084;2022-09-16T17:09:15;1.30;;;1.13;;
16407;SDS011;8313;49.894;8.084;2022-09-16T17:14:21;1.03;;;0.80;;
16407;SDS011;8313;49.894;8.084;2022-09-16T17:16:49;1.70;;;0.77;;
16407;SDS011;8313;49.894;8.084;2022-09-16T17:19:15;0.80;;;0.77;;
16407;SDS011;8313;49.894;8.084;2022-09-16T17:21:42;1.03;;;0.73;;
16407;SDS011;8313;49.894;8.084;2022-09-16T17:24:09;1.03;;;0.80;;
16407;SDS011;8313;49.894;8.084;2022-09-16T17:26:34;1.50;;;0.70;;
16407;SDS011;8313;49.894;8.084;2022-09-16T17:29:00;2.20;;;1.00;;
16407;SDS011;8313;49.894;8.084;2022-09-16T17:31:27;2.03;;;0.93;;
16407;SDS011;8313;49.894;8.084;2022-09-16T17:33:56;13.43;;;8.00;;
16407;SDS011;8313;49.894;8.084;2022-09-16T17:36:27;6.03;;;5.03;;
16407;SDS011;8313;49.894;8.084;2022-09-16T17:39:07;5.77;;;4.40;;
16407;SDS011;8313;49.894;8.084;2022-09-16T17:41:39;14.63;;;10.40;;
16407;SDS011;8313;49.894;8.084;2022-09-16T17:44:07;12.43;;;8.67;;
16407;SDS011;8313;49.894;8.084;2022-09-16T17:46:35;16.00;;;11.17;;
16407;SDS011;8313;49.894;8.084;2022-09-16T17:49:01;15.93;;;11.13;;
16407;SDS011;8313;49.894;8.084;2022-09-16T17:51:29;9.90;;;6.60;;
16407;SDS011;8313;49.894;8.084;2022-09-16T17:53:56;10.30;;;7.00;;
16407;SDS011;8313;49.894;8.084;2022-09-16T17:56:22;9.93;;;6.40;;
16407;SDS011;8313;49.894;8.084;2022-09-16T17:58:49;3.03;;;2.57;;
16407;SDS011;8313;49.894;8.084;2022-09-16T18:01:17;8.47;;;5.30;;
16407;SDS011;8313;49.894;8.084;2022-09-16T18:03:48;27.67;;;18.90;;
16407;SDS011;8313;49.894;8.084;2022-09-16T18:08:42;49.23;;;30.07;;
16407;SDS011;8313;49.894;8.084;2022-09-16T18:11:09;29.07;;;20.33;;
16407;SDS011;8313;49.894;8.084;2022-09-16T18:13:36;25.50;;;19.93;;
16407;SDS011;8313;49.894;8.084;2022-09-16T18:18:34;8.07;;;6.50;;
16407;SDS011;8313;49.894;8.084;2022-09-16T18:21:01;6.13;;;4.67;;
16407;SDS011;8313;49.894;8.084;2022-09-16T18:23:28;4.20;;;3.80;;
16407;SDS011;8313;49.894;8.084;2022-09-16T18:25:54;4.23;;;2.97;;
16407;SDS011;8313;49.894;8.084;2022-09-16T18:28:23;1.73;;;1.60;;
16407;SDS011;8313;49.894;8.084;2022-09-16T18:31:08;2.47;;;1.60;;
16407;SDS011;8313;49.894;8.084;2022-09-16T18:33:36;0.70;;;0.70;;
16407;SDS011;8313;49.894;8.084;2022-09-16T18:36:03;1.13;;;0.80;;
16407;SDS011;8313;49.894;8.084;2022-09-16T18:38:30;1.40;;;1.30;;
16407;SDS011;8313;49.894;8.084;2022-09-16T18:43:37;1.00;;;0.90;;
16407;SDS011;8313;49.894;8.084;2022-09-16T18:48:37;1.10;;;1.00;;